createdAt,value
2023-04-18T00:01:21.297Z,102602.72
2023-04-18T00:03:49.362Z,102599.97
2023-04-18T00:06:16.075Z,102598.94
2023-04-18T00:08:42.549Z,102593.22
2023-04-18T00:11:09.181Z,102580.56
2023-04-18T00:13:35.755Z,102592.19
2023-04-18T00:16:02.473Z,102585.63
2023-04-18T00:18:28.986Z,102589.47
2023-04-18T00:20:56.160Z,102593.00
2023-04-18T00:23:23.227Z,102594.94
2023-04-18T00:25:49.841Z,102598.50
2023-04-18T00:28:16.315Z,102588.19
2023-04-18T00:30:42.872Z,102597.88
2023-04-18T00:33:09.545Z,102594.31
2023-04-18T00:35:38.042Z,102595.53
2023-04-18T00:38:04.583Z,102593.22
2023-04-18T00:40:31.092Z,102591.56
2023-04-18T00:42:57.640Z,102585.00
2023-04-18T00:45:24.215Z,102598.25
2023-04-18T00:47:50.891Z,102591.72
2023-04-18T00:50:18.011Z,102592.38
2023-04-18T00:52:45.693Z,102584.56
2023-04-18T00:55:12.485Z,102588.97
2023-04-18T00:57:39.200Z,102579.28
2023-04-18T01:00:09.957Z,102586.00
2023-04-18T01:02:37.499Z,102590.63
2023-04-18T01:05:04.542Z,102586.44
2023-04-18T01:07:33.333Z,102585.38
2023-04-18T01:10:01.562Z,102588.94
2023-04-18T01:12:28.210Z,102579.66
2023-04-18T01:14:54.773Z,102574.19
2023-04-18T01:17:22.420Z,102589.13
2023-04-18T01:19:51.195Z,102589.34
2023-04-18T01:22:19.484Z,102591.25
2023-04-18T01:24:45.973Z,102588.50
2023-04-18T01:27:13.774Z,102570.78
2023-04-18T01:29:40.954Z,102569.09
2023-04-18T01:32:07.701Z,102576.22
2023-04-18T01:34:34.303Z,102575.00
2023-04-18T01:37:00.836Z,102564.59
2023-04-18T01:39:28.646Z,102575.16
2023-04-18T01:41:55.171Z,102572.00
2023-04-18T01:44:21.677Z,102568.00
2023-04-18T01:46:48.236Z,102564.84
2023-04-18T01:49:16.157Z,102564.78
2023-04-18T01:51:43.875Z,102558.28
2023-04-18T01:54:10.434Z,102566.47
2023-04-18T01:56:36.980Z,102558.19
2023-04-18T01:59:03.883Z,102562.22
2023-04-18T02:01:30.456Z,102564.69
2023-04-18T02:03:58.973Z,102556.69
2023-04-18T02:06:26.076Z,102562.78
2023-04-18T02:08:53.096Z,102557.94
2023-04-18T02:11:19.632Z,102559.38
2023-04-18T02:13:46.164Z,102557.47
2023-04-18T02:16:13.180Z,102561.91
2023-04-18T02:18:40.154Z,102564.41
2023-04-18T02:21:07.216Z,102562.47
2023-04-18T02:23:33.785Z,102565.59
2023-04-18T02:26:00.380Z,102559.31
2023-04-18T02:28:26.873Z,102559.47
2023-04-18T02:30:54.328Z,102555.88
2023-04-18T02:33:20.819Z,102550.56
2023-04-18T02:35:47.337Z,102551.88
2023-04-18T02:38:15.902Z,102552.06
2023-04-18T02:40:42.424Z,102552.66
2023-04-18T02:43:09.010Z,102557.47
2023-04-18T02:45:35.656Z,102538.47
2023-04-18T02:48:02.624Z,102544.78
2023-04-18T02:50:29.584Z,102545.78
2023-04-18T02:52:57.387Z,102542.41
2023-04-18T02:55:30.879Z,102540.91
2023-04-18T02:57:59.669Z,102551.16
2023-04-18T03:00:44.866Z,102546.94
2023-04-18T03:03:46.119Z,102548.34
2023-04-18T03:06:38.697Z,102549.81
2023-04-18T03:09:06.194Z,102545.59
2023-04-18T03:11:35.493Z,102542.47
2023-04-18T03:14:02.287Z,102546.41
2023-04-18T03:16:36.546Z,102547.47
2023-04-18T03:19:05.133Z,102549.38
2023-04-18T03:21:32.021Z,102547.19
2023-04-18T03:23:58.581Z,102549.31
2023-04-18T03:26:25.754Z,102544.50
2023-04-18T03:28:53.743Z,102557.31
2023-04-18T03:31:20.427Z,102550.50
2023-04-18T03:33:48.318Z,102560.38
2023-04-18T03:36:19.040Z,102555.91
2023-04-18T03:38:45.859Z,102562.00
2023-04-18T03:41:12.545Z,102554.22
2023-04-18T03:43:39.125Z,102557.56
2023-04-18T03:46:06.059Z,102569.28
2023-04-18T03:48:36.989Z,102561.22
2023-04-18T03:51:08.098Z,102560.84
2023-04-18T03:53:36.226Z,102570.72
2023-04-18T03:56:02.821Z,102562.94
2023-04-18T03:59:01.638Z,102567.28
2023-04-18T04:01:28.524Z,102567.84
2023-04-18T04:03:55.216Z,102556.41
2023-04-18T04:06:22.393Z,102556.47
2023-04-18T04:08:48.971Z,102558.50
2023-04-18T04:11:20.365Z,102557.25
2023-04-18T04:13:47.261Z,102558.75
2023-04-18T04:16:16.691Z,102569.88
2023-04-18T04:18:43.810Z,102563.97
2023-04-18T04:21:13.150Z,102566.03
2023-04-18T04:23:46.227Z,102561.81
2023-04-18T04:26:23.349Z,102564.44
2023-04-18T04:28:58.501Z,102566.25
2023-04-18T04:31:28.750Z,102571.81
2023-04-18T04:33:56.285Z,102565.81
2023-04-18T04:36:27.201Z,102572.69
2023-04-18T04:38:55.771Z,102571.47
2023-04-18T04:41:31.560Z,102572.88
2023-04-18T04:43:59.451Z,102568.41
2023-04-18T04:46:30.630Z,102569.88
2023-04-18T04:49:00.631Z,102570.44
2023-04-18T04:51:27.967Z,102568.56
2023-04-18T04:53:54.739Z,102571.47
2023-04-18T04:56:22.861Z,102575.28
2023-04-18T04:58:50.109Z,102575.72
2023-04-18T05:01:33.693Z,102586.63
2023-04-18T05:04:00.411Z,102577.78
2023-04-18T05:06:27.502Z,102577.31
2023-04-18T05:08:54.873Z,102584.00
2023-04-18T05:11:21.855Z,102583.34
2023-04-18T05:13:48.386Z,102572.19
2023-04-18T05:16:14.991Z,102580.38
2023-04-18T05:18:42.004Z,102581.38
2023-04-18T05:21:08.625Z,102587.22
2023-04-18T05:23:37.100Z,102589.97
2023-04-18T05:26:05.027Z,102589.28
2023-04-18T05:28:31.876Z,102586.94
2023-04-18T05:31:01.374Z,102602.28
2023-04-18T05:33:29.275Z,102593.81
2023-04-18T05:35:56.392Z,102585.00
2023-04-18T05:38:23.060Z,102594.66
2023-04-18T05:40:55.303Z,102602.63
2023-04-18T05:43:22.680Z,102600.38
2023-04-18T05:45:49.252Z,102601.06
2023-04-18T05:48:15.875Z,102603.41
2023-04-18T05:50:42.424Z,102609.31
2023-04-18T05:53:08.947Z,102604.72
2023-04-18T05:55:35.469Z,102603.69
2023-04-18T05:58:02.070Z,102615.22
2023-04-18T06:00:28.596Z,102603.75
2023-04-18T06:02:55.262Z,102618.72
2023-04-18T06:05:22.162Z,102620.03
2023-04-18T06:07:49.125Z,102615.81
2023-04-18T06:10:16.157Z,102616.75
2023-04-18T06:12:42.652Z,102621.53
2023-04-18T06:15:10.167Z,102623.59
2023-04-18T06:17:36.728Z,102615.31
2023-04-18T06:20:06.180Z,102611.81
2023-04-18T06:22:34.042Z,102611.81
2023-04-18T06:25:00.711Z,102616.91
2023-04-18T06:27:31.427Z,102620.75
2023-04-18T06:29:58.363Z,102630.25
2023-04-18T06:32:24.999Z,102622.25
2023-04-18T06:34:52.827Z,102625.44
2023-04-18T06:37:19.481Z,102631.34
2023-04-18T06:39:46.038Z,102621.69
2023-04-18T06:42:12.688Z,102626.28
2023-04-18T06:44:44.377Z,102620.09
2023-04-18T06:47:11.046Z,102626.38
2023-04-18T06:49:37.670Z,102632.19
2023-04-18T06:52:04.285Z,102636.59
2023-04-18T06:54:30.815Z,102633.75
2023-04-18T06:56:59.389Z,102631.41
2023-04-18T06:59:26.544Z,102629.31
2023-04-18T07:01:53.144Z,102637.16
2023-04-18T07:04:20.045Z,102637.41
2023-04-18T07:06:46.863Z,102643.66
2023-04-18T07:09:13.520Z,102644.56
2023-04-18T07:11:40.641Z,102642.28
2023-04-18T07:14:07.309Z,102642.09
2023-04-18T07:16:34.552Z,102646.50
2023-04-18T07:19:01.164Z,102649.06
2023-04-18T07:21:27.971Z,102646.72
2023-04-18T07:23:54.585Z,102649.44
2023-04-18T07:26:21.309Z,102647.56
2023-04-18T07:28:48.980Z,102651.16
2023-04-18T07:31:16.491Z,102650.09
2023-04-18T07:33:43.460Z,102647.56
2023-04-18T07:36:10.177Z,102647.56
2023-04-18T07:38:36.753Z,102656.31
2023-04-18T07:41:03.629Z,102649.75
2023-04-18T07:43:30.209Z,102653.22
2023-04-18T07:45:56.807Z,102652.34
2023-04-18T07:48:23.605Z,102656.16
2023-04-18T07:50:50.244Z,102661.22
2023-04-18T07:53:17.158Z,102655.53
2023-04-18T07:55:43.761Z,102666.91
2023-04-18T07:58:10.418Z,102667.59
2023-04-18T08:00:39.165Z,102662.59
2023-04-18T08:03:07.652Z,102668.91
2023-04-18T08:05:34.451Z,102664.94
2023-04-18T08:08:01.204Z,102670.22
2023-04-18T08:10:27.963Z,102672.72
2023-04-18T08:12:54.658Z,102672.16
2023-04-18T08:15:21.201Z,102669.88
2023-04-18T08:17:49.079Z,102665.72
2023-04-18T08:20:15.770Z,102676.47
2023-04-18T08:22:57.688Z,102660.06
2023-04-18T08:25:29.738Z,102669.34
2023-04-18T08:27:56.315Z,102676.50
2023-04-18T08:30:22.844Z,102678.22
2023-04-18T08:32:49.680Z,102668.53
2023-04-18T08:35:16.499Z,102671.06
2023-04-18T08:37:43.366Z,102678.28
2023-04-18T08:40:10.072Z,102668.00
2023-04-18T08:42:38.635Z,102670.75
2023-04-18T08:45:06.894Z,102669.53
2023-04-18T08:47:35.197Z,102668.97
2023-04-18T08:50:02.610Z,102672.13
2023-04-18T08:52:31.013Z,102671.97
2023-04-18T08:54:57.673Z,102662.31
2023-04-18T08:57:27.341Z,102659.84
2023-04-18T08:59:55.200Z,102655.09
2023-04-18T09:02:24.541Z,102657.06
2023-04-18T09:04:55.681Z,102661.75
2023-04-18T09:07:29.032Z,102659.72
2023-04-18T09:09:57.599Z,102651.50
2023-04-18T09:12:26.383Z,102653.22
2023-04-18T09:14:57.529Z,102651.34
2023-04-18T09:17:34.234Z,102637.09
2023-04-18T09:20:05.222Z,102650.16
2023-04-18T09:22:57.660Z,102647.63
2023-04-18T09:25:42.013Z,102651.22
2023-04-18T09:28:29.973Z,102650.63
2023-04-18T09:31:17.883Z,102653.97
2023-04-18T09:33:56.605Z,102653.34
2023-04-18T09:36:26.907Z,102654.81
2023-04-18T09:38:56.701Z,102652.50
2023-04-18T09:41:24.197Z,102654.41
2023-04-18T09:44:09.295Z,102656.97
2023-04-18T09:46:37.454Z,102654.91
2023-04-18T09:49:04.146Z,102653.19
2023-04-18T09:51:32.130Z,102655.53
2023-04-18T09:54:00.267Z,102642.91
2023-04-18T09:56:29.537Z,102649.00
2023-04-18T09:59:00.970Z,102642.91
2023-04-18T10:01:29.009Z,102644.56
2023-04-18T10:03:57.101Z,102646.03
2023-04-18T10:06:27.321Z,102650.28
2023-04-18T10:08:55.032Z,102651.75
2023-04-18T10:11:23.627Z,102656.63
2023-04-18T10:13:53.429Z,102647.13
2023-04-18T10:16:20.854Z,102642.34
2023-04-18T10:18:49.650Z,102644.69
2023-04-18T10:21:16.805Z,102648.31
2023-04-18T10:23:43.413Z,102650.22
2023-04-18T10:26:11.141Z,102643.88
2023-04-18T10:28:57.918Z,102647.06
2023-04-18T10:31:26.850Z,102652.94
2023-04-18T10:36:28.003Z,102645.78
2023-04-18T10:38:59.600Z,102653.38
2023-04-18T10:41:33.457Z,102644.94
2023-04-18T10:44:09.532Z,102643.69
2023-04-18T10:46:41.493Z,102650.88
2023-04-18T10:49:14.000Z,102647.28
2023-04-18T10:51:40.812Z,102639.50
2023-04-18T10:54:13.052Z,102644.75
2023-04-18T10:56:39.941Z,102645.81
2023-04-18T10:59:09.423Z,102650.22
2023-04-18T11:01:38.936Z,102654.66
2023-04-18T11:04:11.363Z,102644.38
2023-04-18T11:06:53.229Z,102644.56
2023-04-18T11:09:19.780Z,102644.13
2023-04-18T11:11:46.383Z,102641.63
2023-04-18T11:14:13.277Z,102644.78
2023-04-18T11:16:40.342Z,102642.25
2023-04-18T11:19:26.290Z,102645.44
2023-04-18T11:21:52.855Z,102633.00
2023-04-18T11:24:23.994Z,102645.00
2023-04-18T11:26:53.545Z,102645.00
2023-04-18T11:29:20.089Z,102646.69
2023-04-18T11:31:55.989Z,102643.97
2023-04-18T11:34:30.349Z,102642.91
2023-04-18T11:36:57.280Z,102639.13
2023-04-18T11:39:24.137Z,102639.13
2023-04-18T11:41:50.838Z,102644.59
2023-04-18T11:44:18.509Z,102641.66
2023-04-18T11:46:45.098Z,102640.78
2023-04-18T11:49:32.166Z,102634.09
2023-04-18T11:51:59.850Z,102642.91
2023-04-18T11:54:43.598Z,102642.50
2023-04-18T11:57:39.815Z,102637.44
2023-04-18T12:00:08.687Z,102648.81
2023-04-18T12:02:40.193Z,102643.75
2023-04-18T12:05:07.342Z,102642.72
2023-04-18T12:07:41.458Z,102647.97
2023-04-18T12:10:09.170Z,102645.88
2023-04-18T12:12:36.612Z,102640.59
2023-04-18T12:15:13.749Z,102628.59
2023-04-18T12:17:44.251Z,102645.88
2023-04-18T12:20:11.760Z,102638.31
2023-04-18T12:22:49.551Z,102645.53
2023-04-18T12:25:27.415Z,102636.25
2023-04-18T12:28:14.455Z,102641.75
2023-04-18T12:30:42.066Z,102644.06
2023-04-18T12:33:11.246Z,102635.41
2023-04-18T12:35:37.939Z,102631.84
2023-04-18T12:38:04.813Z,102631.00
2023-04-18T12:40:31.373Z,102627.81
2023-04-18T12:42:58.029Z,102632.91
2023-04-18T12:45:25.130Z,102624.47
2023-04-18T12:47:52.948Z,102627.63
2023-04-18T12:50:22.430Z,102628.22
2023-04-18T12:52:51.210Z,102623.78
2023-04-18T12:55:17.800Z,102618.75
2023-04-18T12:57:44.512Z,102626.13
2023-04-18T13:00:13.119Z,102620.22
2023-04-18T13:02:42.196Z,102627.41
2023-04-18T13:05:13.703Z,102633.50
2023-04-18T13:07:42.587Z,102637.72
2023-04-18T13:10:13.937Z,102640.47
2023-04-18T13:12:41.425Z,102632.22
2023-04-18T13:15:09.316Z,102634.38
2023-04-18T13:17:36.903Z,102633.28
2023-04-18T13:20:07.545Z,102636.69
2023-04-18T13:22:34.170Z,102624.84
2023-04-18T13:25:00.929Z,102629.06
2023-04-18T13:27:27.652Z,102633.25
2023-04-18T13:29:55.074Z,102627.75
2023-04-18T13:32:21.904Z,102626.50
2023-04-18T13:34:48.922Z,102628.19
2023-04-18T13:37:15.529Z,102614.00
2023-04-18T13:39:42.204Z,102620.28
2023-04-18T13:42:09.212Z,102621.50
2023-04-18T13:44:37.195Z,102610.75
2023-04-18T13:47:05.696Z,102617.03
2023-04-18T13:49:33.759Z,102622.53
2023-04-18T13:52:00.664Z,102612.84
2023-04-18T13:54:29.236Z,102614.53
2023-04-18T13:56:57.279Z,102615.78
2023-04-18T13:59:24.771Z,102605.00
2023-04-18T14:01:54.824Z,102617.25
2023-04-18T14:04:22.628Z,102612.78
2023-04-18T14:06:50.419Z,102622.69
2023-04-18T14:09:17.943Z,102606.22
2023-04-18T14:11:45.250Z,102602.84
2023-04-18T14:14:11.948Z,102603.41
2023-04-18T14:16:38.596Z,102596.53
2023-04-18T14:19:05.142Z,102595.09
2023-04-18T14:21:31.664Z,102600.53
2023-04-18T14:23:58.235Z,102607.72
2023-04-18T14:26:24.951Z,102602.59
2023-04-18T14:28:51.476Z,102594.81
2023-04-18T14:31:18.033Z,102596.72
2023-04-18T14:33:44.727Z,102594.53
2023-04-18T14:36:11.452Z,102600.88
2023-04-18T14:38:37.930Z,102589.41
2023-04-18T14:41:05.539Z,102591.31
2023-04-18T14:43:32.451Z,102593.44
2023-04-18T14:45:59.804Z,102585.25
2023-04-18T14:48:27.370Z,102590.38
2023-04-18T14:51:02.421Z,102591.09
2023-04-18T14:53:29.134Z,102577.03
2023-04-18T14:55:56.344Z,102583.56
2023-04-18T14:58:23.051Z,102579.31
2023-04-18T15:00:51.194Z,102585.94
2023-04-18T15:03:17.862Z,102580.97
2023-04-18T15:05:46.471Z,102580.81
2023-04-18T15:11:08.308Z,102576.38
2023-04-18T15:13:35.410Z,102575.91
2023-04-18T15:16:02.101Z,102579.84
2023-04-18T15:18:28.805Z,102580.97
2023-04-18T15:20:56.898Z,102578.69
2023-04-18T15:23:23.526Z,102576.38
2023-04-18T15:25:50.172Z,102572.03
2023-04-18T15:28:18.625Z,102580.47
2023-04-18T15:30:45.864Z,102580.69
2023-04-18T15:33:13.756Z,102568.03
2023-04-18T15:35:40.446Z,102567.09
2023-04-18T15:38:07.212Z,102569.13
2023-04-18T15:40:36.049Z,102567.44
2023-04-18T15:43:02.637Z,102565.47
2023-04-18T15:45:29.160Z,102561.50
2023-04-18T15:47:55.809Z,102553.97
2023-04-18T15:50:25.811Z,102558.44
2023-04-18T15:52:52.350Z,102555.31
2023-04-18T15:55:18.933Z,102556.53
2023-04-18T15:57:45.436Z,102556.94
2023-04-18T16:00:16.076Z,102567.25
2023-04-18T16:02:46.349Z,102565.53
2023-04-18T16:05:13.705Z,102562.44
2023-04-18T16:07:41.224Z,102561.47
2023-04-18T16:10:10.011Z,102563.03
2023-04-18T16:12:37.660Z,102553.00
2023-04-18T16:15:06.577Z,102554.78
2023-04-18T16:17:33.159Z,102551.94
2023-04-18T16:19:59.814Z,102554.78
2023-04-18T16:22:26.391Z,102543.53
2023-04-18T16:24:52.913Z,102554.69
2023-04-18T16:27:19.454Z,102551.78
2023-04-18T16:29:46.148Z,102543.13
2023-04-18T16:32:12.767Z,102551.66
2023-04-18T16:34:39.395Z,102552.63
2023-04-18T16:37:06.272Z,102546.63
2023-04-18T16:39:32.922Z,102542.28
2023-04-18T16:41:59.522Z,102543.63
2023-04-18T16:44:25.985Z,102546.84
2023-04-18T16:46:52.501Z,102548.19
2023-04-18T16:49:20.353Z,102546.63
2023-04-18T16:51:46.816Z,102538.47
2023-04-18T16:54:13.438Z,102546.75
2023-04-18T16:56:40.150Z,102544.22
2023-04-18T16:59:09.199Z,102542.03
2023-04-18T17:01:36.073Z,102545.19
2023-04-18T17:04:02.692Z,102545.28
2023-04-18T17:06:31.247Z,102547.56
2023-04-18T17:08:58.838Z,102543.34
2023-04-18T17:11:26.328Z,102539.50
2023-04-18T17:13:52.812Z,102542.50
2023-04-18T17:16:19.405Z,102543.97
2023-04-18T17:18:46.024Z,102543.34
2023-04-18T17:21:12.653Z,102535.78
2023-04-18T17:23:41.455Z,102545.75
2023-04-18T17:26:09.202Z,102539.53
2023-04-18T17:28:36.345Z,102541.94
2023-04-18T17:31:03.236Z,102545.28
2023-04-18T17:33:29.999Z,102542.78
2023-04-18T17:35:56.786Z,102537.97
2023-04-18T17:38:23.507Z,102537.63
2023-04-18T17:40:59.381Z,102541.81
2023-04-18T17:43:26.350Z,102547.72
2023-04-18T17:45:53.114Z,102533.53
2023-04-18T17:48:19.742Z,102547.34
2023-04-18T17:50:46.232Z,102544.22
2023-04-18T17:53:12.814Z,102545.44
2023-04-18T17:55:40.988Z,102541.34
2023-04-18T17:58:07.564Z,102547.72
2023-04-18T18:00:34.034Z,102555.88
2023-04-18T18:03:01.621Z,102547.97
2023-04-18T18:05:28.321Z,102549.75
2023-04-18T18:07:56.188Z,102549.88
2023-04-18T18:10:23.820Z,102560.03
2023-04-18T18:12:50.806Z,102557.84
2023-04-18T18:15:18.013Z,102560.91
2023-04-18T18:17:48.662Z,102558.72
2023-04-18T18:20:15.595Z,102560.38
2023-04-18T18:22:42.834Z,102566.44
2023-04-18T18:25:09.820Z,102564.38
2023-04-18T18:27:36.740Z,102560.88
2023-04-18T18:30:04.308Z,102562.66
2023-04-18T18:32:31.096Z,102554.47
2023-04-18T18:34:57.585Z,102560.28
2023-04-18T18:37:25.903Z,102559.69
2023-04-18T18:39:54.257Z,102566.59
2023-04-18T18:42:20.731Z,102561.31
2023-04-18T18:44:47.274Z,102573.41
2023-04-18T18:47:13.838Z,102571.72
2023-04-18T18:49:40.721Z,102579.00
2023-04-18T18:52:07.275Z,102579.22
2023-04-18T18:54:34.278Z,102577.16
2023-04-18T18:57:03.401Z,102585.88
2023-04-18T18:59:30.488Z,102582.34
2023-04-18T19:01:57.073Z,102582.81
2023-04-18T19:04:24.197Z,102580.97
2023-04-18T19:06:50.934Z,102582.66
2023-04-18T19:09:17.466Z,102589.06
2023-04-18T19:11:44.061Z,102592.44
2023-04-18T19:14:10.742Z,102591.38
2023-04-18T19:16:37.412Z,102597.13
2023-04-18T19:19:04.241Z,102605.00
2023-04-18T19:21:31.386Z,102589.34
2023-04-18T19:23:57.928Z,102594.69
2023-04-18T19:26:24.473Z,102598.09
2023-04-18T19:28:51.148Z,102598.72
2023-04-18T19:31:17.709Z,102606.56
2023-04-18T19:33:44.263Z,102599.41
2023-04-18T19:36:10.886Z,102599.41
2023-04-18T19:38:37.489Z,102594.00
2023-04-18T19:41:03.960Z,102603.56
2023-04-18T19:43:30.437Z,102602.50
2023-04-18T19:45:57.097Z,102607.16
2023-04-18T19:48:23.785Z,102613.94
2023-04-18T19:50:51.042Z,102612.69
2023-04-18T19:53:18.938Z,102611.63
2023-04-18T19:55:45.504Z,102613.09
2023-04-18T19:58:12.106Z,102620.53
2023-04-18T20:00:39.425Z,102615.22
2023-04-18T20:03:06.114Z,102620.13
2023-04-18T20:05:32.779Z,102623.75
2023-04-18T20:07:59.372Z,102617.41
2023-04-18T20:10:25.951Z,102629.47
2023-04-18T20:12:52.489Z,102620.22
2023-04-18T20:15:18.985Z,102621.94
2023-04-18T20:17:45.558Z,102624.28
2023-04-18T20:20:12.984Z,102619.25
2023-04-18T20:22:41.769Z,102623.44
2023-04-18T20:25:08.841Z,102623.03
2023-04-18T20:27:35.484Z,102623.69
2023-04-18T20:30:02.150Z,102629.84
2023-04-18T20:32:28.806Z,102620.53
2023-04-18T20:34:55.452Z,102627.09
2023-04-18T20:37:22.315Z,102630.06
2023-04-18T20:39:48.863Z,102634.16
2023-04-18T20:42:15.720Z,102628.66
2023-04-18T20:44:46.769Z,102631.22
2023-04-18T20:47:15.494Z,102635.47
2023-04-18T20:49:42.517Z,102632.91
2023-04-18T20:52:09.587Z,102632.72
2023-04-18T20:54:36.382Z,102631.66
2023-04-18T20:57:03.106Z,102637.16
2023-04-18T20:59:29.786Z,102636.53
2023-04-18T21:01:56.421Z,102633.16
2023-04-18T21:04:23.484Z,102643.97
2023-04-18T21:06:50.687Z,102646.09
2023-04-18T21:09:17.307Z,102627.56
2023-04-18T21:11:43.869Z,102628.81
2023-04-18T21:14:10.695Z,102646.34
2023-04-18T21:16:39.180Z,102642.13
2023-04-18T21:19:06.785Z,102646.78
2023-04-18T21:21:34.180Z,102641.09
2023-04-18T21:24:01.641Z,102642.41
2023-04-18T21:26:28.358Z,102649.56
2023-04-18T21:28:56.623Z,102650.00
2023-04-18T21:31:23.791Z,102641.75
2023-04-18T21:33:58.162Z,102653.38
2023-04-18T21:36:28.992Z,102639.63
2023-04-18T21:38:56.796Z,102645.56
2023-04-18T21:41:23.927Z,102652.91
2023-04-18T21:43:51.187Z,102655.50
2023-04-18T21:46:18.171Z,102646.44
2023-04-18T21:48:47.262Z,102652.09
2023-04-18T21:51:15.960Z,102648.78
2023-04-18T21:53:42.682Z,102647.94
2023-04-18T21:56:10.670Z,102650.47
2023-04-18T21:58:37.231Z,102653.22
2023-04-18T22:01:03.798Z,102640.38
2023-04-18T22:03:31.646Z,102647.56
2023-04-18T22:05:58.858Z,102640.78
2023-04-18T22:08:26.226Z,102649.44
2023-04-18T22:10:55.525Z,102653.91
2023-04-18T22:13:22.833Z,102648.00
2023-04-18T22:15:51.351Z,102647.59
2023-04-18T22:18:18.755Z,102649.47
2023-04-18T22:20:46.838Z,102650.75
2023-04-18T22:23:13.841Z,102653.09
2023-04-18T22:25:40.863Z,102650.56
2023-04-18T22:28:07.706Z,102653.53
2023-04-18T22:30:34.348Z,102650.81
2023-04-18T22:33:01.139Z,102645.09
2023-04-18T22:35:27.797Z,102656.50
2023-04-18T22:37:55.542Z,102638.16
2023-04-18T22:40:22.143Z,102644.06
2023-04-18T22:42:48.707Z,102640.91
2023-04-18T22:45:15.511Z,102639.19
2023-04-18T22:47:42.222Z,102647.44
2023-04-18T22:50:09.172Z,102643.44
2023-04-18T22:52:35.930Z,102651.88
2023-04-18T22:55:03.255Z,102644.69
2023-04-18T22:57:29.978Z,102636.03
2023-04-18T22:59:56.687Z,102637.53
2023-04-18T23:02:23.637Z,102655.44
2023-04-18T23:04:50.522Z,102653.13
2023-04-18T23:07:17.215Z,102650.19
2023-04-18T23:09:43.703Z,102642.38
2023-04-18T23:12:10.310Z,102655.22
2023-04-18T23:14:36.932Z,102652.91
2023-04-18T23:17:03.488Z,102666.63
2023-04-18T23:19:30.124Z,102651.88
2023-04-18T23:21:56.669Z,102660.72
2023-04-18T23:24:23.195Z,102651.03
2023-04-18T23:26:49.702Z,102661.16
2023-04-18T23:29:16.352Z,102657.56
2023-04-18T23:31:42.973Z,102664.50
2023-04-18T23:34:10.263Z,102657.38
2023-04-18T23:36:37.232Z,102643.03
2023-04-18T23:39:04.297Z,102654.00
2023-04-18T23:41:30.961Z,102652.06
2023-04-18T23:43:57.466Z,102656.94
2023-04-18T23:46:24.087Z,102652.72
2023-04-18T23:48:50.906Z,102652.28
2023-04-18T23:51:17.616Z,102651.44
2023-04-18T23:53:44.110Z,102651.25
2023-04-18T23:56:10.670Z,102643.84
2023-04-18T23:58:37.208Z,102651.44
